Time;durP1;ratioP1;P1;durP2;ratioP2;P2;SDS_P1;SDS_P2;PMS_P1;PMS_P2;Temp;Humidity;BMP_temperature;BMP_pressure;BME280_temperature;BME280_humidity;BME280_pressure;Samples;Min_cycle;Max_cycle;Signal;HPM_P1;HPM_P2
2023/08/11 00:01:00;;;;;;;3.50;1.90;;;;;;;19.64;100.00;94970.59;5055485;28;20041;-86
2023/08/11 00:03:25;;;;;;;8.73;2.45;;;;;;;19.00;100.00;94964.63;5055409;28;20029;-86
2023/08/11 00:05:53;;;;;;;7.10;2.28;;;;;;;19.05;100.00;94980.41;5055403;28;20039;-86
2023/08/11 00:08:18;;;;;;;4.50;2.10;;;;;;;19.16;100.00;94970.31;5054907;28;20055;-86
2023/08/11 00:10:44;;;;;;;6.53;2.22;;;;;;;19.24;100.00;94974.09;5054907;28;20021;-86
2023/08/11 00:13:12;;;;;;;7.70;2.53;;;;;;;19.25;100.00;94967.69;5055238;28;20031;-86
2023/08/11 00:15:39;;;;;;;4.43;2.50;;;;;;;18.88;100.00;94972.34;5055286;28;20420;-87
2023/08/11 00:18:05;;;;;;;7.05;2.50;;;;;;;18.65;100.00;94975.06;5055199;28;20047;-86
2023/08/11 00:20:31;;;;;;;4.00;2.28;;;;;;;18.84;100.00;94971.41;5054718;28;20052;-86
2023/08/11 00:22:57;;;;;;;4.90;2.47;;;;;;;18.67;100.00;94967.56;5054939;28;20071;-86
2023/08/11 00:25:22;;;;;;;8.18;2.80;;;;;;;18.81;100.00;94958.75;5054839;28;20043;-86
2023/08/11 00:27:48;;;;;;;6.03;2.15;;;;;;;18.91;100.00;94953.94;5054649;28;20037;-86
2023/08/11 00:30:14;;;;;;;5.53;2.60;;;;;;;18.84;100.00;94960.78;5054803;28;20021;-87
2023/08/11 00:32:39;;;;;;;4.45;2.30;;;;;;;18.96;100.00;94958.34;5054924;28;20037;-87
2023/08/11 00:35:05;;;;;;;3.95;2.28;;;;;;;19.13;100.00;94957.63;5056371;28;20767;-86
2023/08/11 00:37:31;;;;;;;5.43;2.22;;;;;;;19.16;100.00;94958.91;5037956;28;20338;-86
2023/08/11 00:39:58;;;;;;;5.35;2.42;;;;;;;19.25;100.00;94958.94;5054539;28;20036;-86
2023/08/11 00:42:23;;;;;;;3.97;2.53;;;;;;;19.25;100.00;94961.59;5054448;28;20079;-87
2023/08/11 00:44:49;;;;;;;4.85;2.08;;;;;;;19.26;100.00;94963.94;5055050;28;20439;-87
2023/08/11 00:47:15;;;;;;;6.47;2.33;;;;;;;18.64;100.00;94960.19;5055658;28;20086;-86
2023/08/11 00:49:41;;;;;;;3.97;2.30;;;;;;;18.44;100.00;94962.28;5054515;28;20438;-86
2023/08/11 00:52:06;;;;;;;6.05;2.55;;;;;;;18.55;100.00;94964.69;5037541;28;20025;-86
2023/08/11 00:54:32;;;;;;;6.95;2.53;;;;;;;18.57;100.00;94962.50;5053854;28;20408;-86
2023/08/11 00:56:58;;;;;;;4.63;2.20;;;;;;;18.68;100.00;94960.38;5053604;28;20066;-85
2023/08/11 00:59:23;;;;;;;6.13;2.63;;;;;;;18.81;100.00;94962.16;5053529;28;20056;-86
2023/08/11 01:01:49;;;;;;;7.95;2.40;;;;;;;18.61;100.00;94961.59;5054932;28;20036;-85
2023/08/11 01:04:14;;;;;;;6.28;2.50;;;;;;;18.72;100.00;94959.47;5053880;28;20120;-85
2023/08/11 01:06:47;;;;;;;7.95;2.83;;;;;;;18.77;100.00;94961.97;5052681;28;20450;-86
2023/08/11 01:09:21;;;;;;;4.53;2.65;;;;;;;18.64;100.00;94966.31;5053261;28;20070;-86
2023/08/11 01:11:56;;;;;;;4.57;2.20;;;;;;;18.63;100.00;94962.09;5052657;28;20449;-87
2023/08/11 01:14:35;;;;;;;8.60;2.67;;;;;;;18.82;100.00;94963.72;5054170;28;20028;-86
2023/08/11 01:17:01;;;;;;;8.32;2.65;;;;;;;18.91;100.00;94961.13;5053619;28;20029;-85
2023/08/11 01:19:32;;;;;;;8.85;2.30;;;;;;;18.89;100.00;94961.44;5053907;28;20094;-85
2023/08/11 01:21:59;;;;;;;5.10;2.40;;;;;;;18.79;100.00;94959.84;5053814;28;20028;-85
2023/08/11 01:24:26;;;;;;;4.30;2.50;;;;;;;18.70;100.00;94960.84;5054197;28;20036;-86
2023/08/11 01:26:51;;;;;;;3.67;2.20;;;;;;;18.85;100.00;94957.03;5053446;28;20036;-86
2023/08/11 01:29:18;;;;;;;7.45;2.58;;;;;;;18.49;100.00;94962.16;5037379;28;20021;-86
2023/08/11 01:31:44;;;;;;;4.50;2.20;;;;;;;18.29;100.00;94963.44;5055328;28;20033;-86
2023/08/11 01:34:09;;;;;;;3.67;2.20;;;;;;;18.24;100.00;94968.84;5054061;28;20111;-86
2023/08/11 01:36:36;;;;;;;7.38;2.25;;;;;;;18.23;100.00;94975.25;5055393;28;20032;-86
2023/08/11 01:39:04;;;;;;;9.80;2.50;;;;;;;18.45;100.00;94974.47;5054994;28;20027;-86
2023/08/11 01:41:31;;;;;;;7.57;2.20;;;;;;;18.27;100.00;94976.19;5053956;28;20060;-86
2023/08/11 01:43:56;;;;;;;4.70;2.17;;;;;;;18.22;100.00;94977.13;5055202;28;20351;-86
2023/08/11 01:46:23;;;;;;;3.65;2.13;;;;;;;18.39;100.00;94975.69;5055136;28;20040;-86
2023/08/11 01:48:49;;;;;;;6.43;2.58;;;;;;;18.46;100.00;94978.66;5053967;28;20071;-86
2023/08/11 01:51:14;;;;;;;3.85;2.28;;;;;;;18.53;100.00;94977.47;5053573;28;20461;-86
2023/08/11 01:53:39;;;;;;;8.82;2.40;;;;;;;18.41;100.00;94984.13;5053896;28;20119;-86
2023/08/11 01:56:05;;;;;;;4.20;2.13;;;;;;;18.43;100.00;94979.28;5037134;28;20021;-86
2023/08/11 01:58:31;;;;;;;7.95;2.78;;;;;;;18.34;100.00;94981.09;5053693;28;20327;-86
2023/08/11 02:00:56;;;;;;;7.30;2.70;;;;;;;18.12;100.00;94979.19;5056680;28;20179;-86
2023/08/11 02:03:22;;;;;;;5.75;2.70;;;;;;;17.99;100.00;94976.25;5059001;28;20438;-86
2023/08/11 02:05:48;;;;;;;7.80;2.67;;;;;;;17.89;100.00;94977.28;5057767;28;20037;-86
2023/08/11 02:08:17;;;;;;;5.30;2.10;;;;;;;18.14;100.00;94975.19;5058807;28;20020;-86
2023/08/11 02:10:44;;;;;;;6.63;2.83;;;;;;;18.16;100.00;94980.97;5057667;28;20060;-86
2023/08/11 02:13:10;;;;;;;5.75;2.38;;;;;;;18.08;100.00;94979.03;5058793;28;20040;-86
2023/08/11 02:15:35;;;;;;;5.25;2.15;;;;;;;18.15;100.00;94978.63;5057154;28;20062;-86
2023/08/11 02:18:01;;;;;;;10.45;2.97;;;;;;;18.20;100.00;94971.31;5058404;28;20025;-86
2023/08/11 02:20:26;;;;;;;8.48;2.55;;;;;;;18.32;100.00;94965.47;5057040;28;20139;-86
2023/08/11 02:22:52;;;;;;;4.68;2.40;;;;;;;18.32;100.00;94965.47;5057456;28;20410;-86
2023/08/11 02:25:18;;;;;;;8.43;2.55;;;;;;;18.08;100.00;94969.19;5057377;28;20041;-86
2023/08/11 02:27:43;;;;;;;5.90;2.38;;;;;;;18.05;100.00;94972.47;5057019;28;20048;-86
2023/08/11 02:30:11;;;;;;;5.32;2.20;;;;;;;18.17;100.00;94971.91;5058554;28;20044;-86
2023/08/11 02:32:37;;;;;;;7.65;2.55;;;;;;;18.10;100.00;94976.88;5056893;28;20040;-86
2023/08/11 02:35:04;;;;;;;8.60;2.58;;;;;;;17.99;100.00;94970.97;5058356;28;20043;-86
2023/08/11 02:37:30;;;;;;;9.35;2.75;;;;;;;18.09;100.00;94970.78;5056948;28;20040;-86
2023/08/11 02:39:55;;;;;;;4.57;2.22;;;;;;;18.34;100.00;94973.13;5058287;28;20071;-86
2023/08/11 02:42:21;;;;;;;10.02;2.40;;;;;;;18.35;100.00;94970.19;5058215;28;20167;-86
2023/08/11 02:44:46;;;;;;;19.80;2.72;;;;;;;18.47;100.00;94968.84;5056936;28;20461;-86
2023/08/11 02:47:11;;;;;;;7.75;2.72;;;;;;;18.43;100.00;94968.66;5056709;28;20041;-86
2023/08/11 02:49:37;;;;;;;4.50;2.40;;;;;;;18.51;100.00;94972.47;5056613;28;20047;-86
2023/08/11 02:52:02;;;;;;;4.28;2.13;;;;;;;18.43;100.00;94966.00;5057114;28;20040;-86
2023/08/11 02:54:28;;;;;;;5.43;2.60;;;;;;;18.43;100.00;94968.66;5058117;28;20048;-86
2023/08/11 02:56:53;;;;;;;8.10;2.30;;;;;;;18.46;100.00;94973.38;5057827;28;20037;-86
2023/08/11 02:59:19;;;;;;;5.13;2.15;;;;;;;18.27;100.00;94964.81;5056314;28;20045;-86
2023/08/11 03:01:44;;;;;;;4.60;2.10;;;;;;;18.20;100.00;94975.84;5057887;28;20355;-86
2023/08/11 03:04:10;;;;;;;4.10;2.47;;;;;;;18.37;100.00;94965.34;5057811;28;20045;-86
2023/08/11 03:06:35;;;;;;;6.45;2.53;;;;;;;18.20;100.00;94981.16;5057826;28;20051;-86
2023/08/11 03:09:01;;;;;;;4.00;2.40;;;;;;;18.34;100.00;94973.91;5056286;28;20035;-86
2023/08/11 03:11:29;;;;;;;6.05;2.42;;;;;;;18.15;100.00;94979.41;5056239;28;20054;-86
2023/08/11 03:13:54;;;;;;;6.50;2.17;;;;;;;18.07;100.00;94983.53;5057660;28;20691;-86
2023/08/11 03:16:19;;;;;;;6.80;2.60;;;;;;;17.70;100.00;94979.28;5057485;28;20048;-85
2023/08/11 03:18:45;;;;;;;5.97;2.50;;;;;;;17.81;100.00;94978.00;5055770;28;20358;-85
2023/08/11 03:21:11;;;;;;;5.43;2.25;;;;;;;17.73;100.00;94984.00;5035776;28;20044;-86
2023/08/11 03:23:37;;;;;;;8.02;2.67;;;;;;;18.02;100.00;94986.31;5055141;28;20040;-85
2023/08/11 03:26:02;;;;;;;6.13;2.78;;;;;;;17.99;100.00;94983.44;5055474;28;20040;-86
2023/08/11 03:28:27;;;;;;;6.45;2.22;;;;;;;18.04;100.00;94986.00;5056729;28;20044;-85
2023/08/11 03:30:53;;;;;;;4.85;2.58;;;;;;;17.87;100.00;94989.28;5055375;28;20048;-85
2023/08/11 03:33:18;;;;;;;6.93;3.05;;;;;;;17.65;100.00;94994.22;5056596;28;20045;-85
2023/08/11 03:35:44;;;;;;;4.97;2.58;;;;;;;17.80;100.00;94997.63;5055066;28;20044;-86
2023/08/11 03:38:09;;;;;;;4.72;2.33;;;;;;;17.89;100.00;95000.38;5056642;28;20056;-85
2023/08/11 03:40:35;;;;;;;4.35;2.38;;;;;;;17.79;100.00;94993.41;5038915;28;20047;-85
2023/08/11 03:43:00;;;;;;;7.60;2.65;;;;;;;17.67;100.00;94992.06;5056730;28;20048;-86
2023/08/11 03:45:25;;;;;;;6.10;2.40;;;;;;;17.54;100.00;94995.50;5056637;28;20043;-86
2023/08/11 03:47:51;;;;;;;9.70;2.95;;;;;;;17.63;100.00;94995.59;5054812;28;20044;-86
2023/08/11 03:50:16;;;;;;;4.53;2.38;;;;;;;17.83;100.00;95002.34;5056588;28;20044;-85
2023/08/11 03:52:42;;;;;;;7.90;2.72;;;;;;;17.88;100.00;95002.22;5055500;28;20177;-85
2023/08/11 03:55:09;;;;;;;7.25;2.78;;;;;;;17.81;100.00;95007.16;5055522;28;20342;-86
2023/08/11 03:57:36;;;;;;;9.75;2.53;;;;;;;17.62;100.00;95002.75;5055560;28;20334;-85
2023/08/11 04:00:09;;;;;;;4.80;2.33;;;;;;;17.62;100.00;95001.97;5055556;28;20126;-86
2023/08/11 04:02:35;;;;;;;5.43;2.33;;;;;;;17.66;100.00;94995.78;5055458;28;20037;-85
2023/08/11 04:05:00;;;;;;;6.55;2.28;;;;;;;17.74;100.00;95007.56;5054978;28;20331;-85
2023/08/11 04:07:27;;;;;;;3.35;2.13;;;;;;;17.81;100.00;95001.84;5054897;28;20123;-86
2023/08/11 04:09:54;;;;;;;8.95;2.92;;;;;;;17.60;100.00;95001.50;5038404;28;20029;-85
2023/08/11 04:12:19;;;;;;;7.25;2.30;;;;;;;17.37;100.00;94998.75;5055294;28;20075;-85
2023/08/11 04:14:44;;;;;;;7.32;2.70;;;;;;;17.30;100.00;95006.31;5055286;28;20422;-86
2023/08/11 04:17:13;;;;;;;3.97;2.20;;;;;;;17.39;100.00;95004.53;5038107;28;20028;-86
2023/08/11 04:19:40;;;;;;;4.45;2.28;;;;;;;17.36;100.00;95003.28;5056316;28;20040;-85
2023/08/11 04:22:05;;;;;;;5.28;2.38;;;;;;;17.41;100.00;94999.72;5055324;28;20032;-86
2023/08/11 04:24:31;;;;;;;6.38;2.72;;;;;;;17.64;100.00;95005.09;5054785;28;20033;-85
2023/08/11 04:26:56;;;;;;;4.22;2.38;;;;;;;17.88;100.00;95018.13;5054674;28;20040;-85
2023/08/11 04:29:21;;;;;;;3.80;2.28;;;;;;;17.90;100.00;95018.59;5055981;28;20453;-85
2023/08/11 04:31:47;;;;;;;5.82;2.83;;;;;;;17.62;100.00;95016.00;5056037;28;20167;-85
2023/08/11 04:34:14;;;;;;;9.98;2.75;;;;;;;17.52;100.00;95013.56;5053486;28;20028;-85
2023/08/11 04:36:39;;;;;;;4.72;2.38;;;;;;;17.37;100.00;95018.09;5053464;28;20024;-85
2023/08/11 04:39:05;;;;;;;5.18;2.53;;;;;;;17.31;100.00;95021.13;5055707;28;20051;-85
2023/08/11 04:41:31;;;;;;;3.72;2.33;;;;;;;17.46;100.00;95020.03;5055863;28;20060;-85
2023/08/11 04:43:57;;;;;;;8.38;2.70;;;;;;;17.64;100.00;95019.13;5054386;28;20032;-86
2023/08/11 04:46:23;;;;;;;7.13;2.47;;;;;;;17.61;100.00;95025.03;5054391;28;20430;-85
2023/08/11 04:48:48;;;;;;;4.80;2.13;;;;;;;17.59;100.00;95029.84;5037681;28;20021;-86
2023/08/11 04:51:13;;;;;;;9.50;2.50;;;;;;;17.72;100.00;95030.94;5055794;28;20115;-85
2023/08/11 04:53:39;;;;;;;5.97;2.80;;;;;;;17.46;100.00;95027.97;5037670;28;20067;-85
2023/08/11 04:56:04;;;;;;;5.93;2.45;;;;;;;17.42;100.00;95027.78;5054276;28;20338;-85
2023/08/11 04:58:33;;;;;;;7.88;2.53;;;;;;;17.37;100.00;95030.53;5053730;28;20064;-86
2023/08/11 05:00:59;;;;;;;5.72;2.10;;;;;;;17.65;100.00;95031.31;5054198;28;20039;-86
2023/08/11 05:03:24;;;;;;;6.53;2.53;;;;;;;17.96;100.00;95032.53;5055729;28;20434;-86
2023/08/11 05:05:51;;;;;;;8.18;2.60;;;;;;;17.95;100.00;95033.63;5054356;28;20043;-86
2023/08/11 05:08:16;;;;;;;7.20;2.72;;;;;;;17.82;100.00;95040.53;5054067;28;20032;-87
2023/08/11 05:10:42;;;;;;;7.13;2.80;;;;;;;17.65;100.00;95031.31;5055452;28;20110;-87
2023/08/11 05:13:07;;;;;;;5.10;2.65;;;;;;;17.66;100.00;95037.38;5055811;28;20377;-86
2023/08/11 05:15:33;;;;;;;4.10;2.25;;;;;;;18.09;100.00;95044.25;5054191;28;20116;-87
2023/08/11 05:17:58;;;;;;;11.90;2.67;;;;;;;18.35;100.00;95038.34;5054359;28;20035;-88
2023/08/11 05:20:24;;;;;;;4.13;2.30;;;;;;;18.54;100.00;95048.03;5054507;28;20041;-87
2023/08/11 05:22:52;;;;;;;4.40;2.40;;;;;;;18.66;100.00;95048.28;5055707;28;20049;-87
2023/08/11 05:25:17;;;;;;;6.38;2.38;;;;;;;18.76;100.00;95049.91;5054381;28;20075;-86
2023/08/11 05:27:43;;;;;;;6.78;2.55;;;;;;;18.82;100.00;95045.25;5053950;28;20442;-87
2023/08/11 05:30:09;;;;;;;8.18;2.40;;;;;;;19.01;100.00;95051.16;5055335;28;20071;-86
2023/08/11 05:32:35;;;;;;;4.97;2.42;;;;;;;18.59;100.00;95047.91;5053976;28;20691;-87
2023/08/11 05:35:00;;;;;;;14.50;3.10;;;;;;;18.43;100.00;95042.94;5057739;28;20433;-86
2023/08/11 05:37:26;;;;;;;4.40;2.70;;;;;;;18.68;100.00;95050.63;5057794;28;20033;-87
2023/08/11 05:39:54;;;;;;;7.63;2.47;;;;;;;19.11;100.00;95058.09;5058499;28;20044;-86
2023/08/11 05:42:20;;;;;;;7.55;2.15;;;;;;;19.30;100.00;95054.44;5059097;28;20048;-87
2023/08/11 05:44:49;;;;;;;4.00;1.85;;;;;;;19.46;100.00;95062.78;5057340;28;20063;-87
2023/08/11 05:47:14;;;;;;;5.75;2.10;;;;;;;19.62;100.00;95058.59;5059008;28;20028;-87
2023/08/11 05:49:39;;;;;;;8.48;2.25;;;;;;;19.71;100.00;95053.31;5059072;28;20041;-87
2023/08/11 05:52:05;;;;;;;5.13;2.10;;;;;;;19.81;100.00;95062.09;5057308;28;20033;-86
2023/08/11 05:54:30;;;;;;;4.75;2.28;;;;;;;19.90;100.00;95063.69;5057101;28;20382;-86
2023/08/11 05:56:57;;;;;;;6.68;2.53;;;;;;;20.03;100.00;95069.22;5058732;28;20051;-87
2023/08/11 05:59:23;;;;;;;3.50;2.25;;;;;;;20.05;100.00;95065.16;5041515;28;20037;-86
2023/08/11 06:01:48;;;;;;;5.78;2.13;;;;;;;20.07;100.00;95067.50;5057847;28;20041;-87
2023/08/11 06:04:14;;;;;;;6.63;1.90;;;;;;;20.16;100.00;95075.53;5059220;28;20091;-87
2023/08/11 06:06:39;;;;;;;4.60;2.50;;;;;;;20.27;100.00;95076.00;5057802;28;20065;-87
2023/08/11 06:09:05;;;;;;;5.90;2.17;;;;;;;20.36;100.00;95076.00;5057623;28;20086;-87
2023/08/11 06:11:30;;;;;;;4.18;2.00;;;;;;;20.51;100.00;95075.53;5057611;28;20036;-87
2023/08/11 06:13:56;;;;;;;6.88;2.45;;;;;;;20.62;100.00;95076.00;5052631;28;20063;-87
2023/08/11 06:16:21;;;;;;;4.07;2.30;;;;;;;20.65;100.00;95080.69;5049877;28;20033;-87
2023/08/11 06:18:47;;;;;;;3.65;2.35;;;;;;;20.76;100.00;95081.94;5057439;28;20107;-87
2023/08/11 06:21:12;;;;;;;3.38;2.17;;;;;;;20.90;100.00;95078.34;5056121;28;20127;-87
2023/08/11 06:23:38;;;;;;;4.65;2.15;;;;;;;20.97;100.00;95080.53;5041101;28;20033;-87
2023/08/11 06:26:03;;;;;;;5.80;2.20;;;;;;;21.09;100.00;95087.88;5040956;28;20032;-87
2023/08/11 06:28:29;;;;;;;8.63;2.30;;;;;;;21.19;100.00;95091.00;5058663;28;20047;-87
2023/08/11 06:30:54;;;;;;;3.65;2.30;;;;;;;21.01;100.00;95084.13;5057282;28;20158;-87
2023/08/11 06:33:20;;;;;;;5.03;2.13;;;;;;;21.27;100.00;95094.75;5058751;28;20098;-87
2023/08/11 06:35:45;;;;;;;3.80;2.20;;;;;;;21.29;100.00;95081.06;5057607;28;20044;-87
2023/08/11 06:38:11;;;;;;;8.85;2.28;;;;;;;20.61;100.00;95096.53;5057397;28;20124;-86
2023/08/11 06:40:40;;;;;;;6.95;2.40;;;;;;;20.72;100.00;95099.66;5058013;28;20043;-87
2023/08/11 06:43:06;;;;;;;3.88;2.28;;;;;;;21.09;100.00;95101.97;5056774;28;20033;-87
2023/08/11 06:45:34;;;;;;;6.80;2.25;;;;;;;21.35;100.00;95105.69;5039703;28;20044;-86
2023/08/11 06:47:59;;;;;;;5.13;2.13;;;;;;;21.38;100.00;95097.84;5056820;28;20029;-86
2023/08/11 06:50:25;;;;;;;7.35;2.60;;;;;;;21.56;100.00;95105.75;5056855;28;20040;-86
2023/08/11 06:52:51;;;;;;;10.40;2.45;;;;;;;21.13;100.00;95110.91;5044245;28;20033;-85
2023/08/11 06:55:16;;;;;;;4.95;2.35;;;;;;;21.12;100.00;95113.91;5036797;28;20045;-86
2023/08/11 06:57:41;;;;;;;4.30;2.33;;;;;;;21.32;100.00;95115.88;5036298;28;20034;-85
2023/08/11 07:00:07;;;;;;;4.65;1.90;;;;;;;21.61;100.00;95113.59;5036872;28;20044;-85
2023/08/11 07:02:34;;;;;;;3.65;2.17;;;;;;;21.73;100.00;95116.41;5036709;28;20033;-86
2023/08/11 07:05:00;;;;;;;5.50;2.58;;;;;;;21.77;100.00;95119.19;5041516;28;20108;-86
2023/08/11 07:07:25;;;;;;;4.68;2.25;;;;;;;21.91;100.00;95121.66;5036570;28;20079;-85
2023/08/11 07:09:50;;;;;;;8.35;2.30;;;;;;;21.54;100.00;95121.31;5037767;28;20038;-85
2023/08/11 07:12:16;;;;;;;3.83;2.13;;;;;;;22.02;100.00;95130.06;5052337;28;20029;-85
2023/08/11 07:14:42;;;;;;;7.72;2.35;;;;;;;22.11;100.00;95128.16;5057612;28;20591;-85
2023/08/11 07:17:08;;;;;;;3.92;1.92;;;;;;;22.16;100.00;95129.84;5056188;28;20036;-85
2023/08/11 07:19:33;;;;;;;8.05;2.38;;;;;;;22.14;100.00;95130.16;5056052;28;20049;-85
2023/08/11 07:21:59;;;;;;;4.90;2.22;;;;;;;22.20;100.00;95129.97;5057563;28;20036;-86
2023/08/11 07:24:24;;;;;;;3.92;2.00;;;;;;;22.40;100.00;95131.91;5057197;28;20034;-86
2023/08/11 07:26:50;;;;;;;10.30;2.30;;;;;;;22.21;100.00;95134.22;5057339;28;20377;-85
2023/08/11 07:29:15;;;;;;;3.72;1.77;;;;;;;22.54;100.00;95130.91;5055801;28;20037;-85
2023/08/11 07:31:41;;;;;;;3.95;1.85;;;;;;;22.52;100.00;95136.56;5055841;28;20346;-85
2023/08/11 07:34:06;;;;;;;5.68;2.00;;;;;;;22.56;100.00;95136.69;5053102;28;20037;-85
2023/08/11 07:36:31;;;;;;;4.15;2.30;;;;;;;22.48;100.00;95134.84;5055767;28;20033;-84
2023/08/11 07:38:57;;;;;;;5.88;1.88;;;;;;;22.65;100.00;95140.06;5057019;28;20264;-84
2023/08/11 07:41:22;;;;;;;4.25;1.83;;;;;;;22.39;100.00;95134.88;5055666;28;20032;-84
2023/08/11 07:43:48;;;;;;;6.25;1.92;;;;;;;22.62;100.00;95137.28;5056882;28;20323;-85
2023/08/11 07:46:13;;;;;;;6.97;2.00;;;;;;;22.90;100.00;95142.88;5049834;28;20029;-84
2023/08/11 07:48:39;;;;;;;5.18;2.10;;;;;;;22.81;100.00;95140.28;5047252;28;20031;-86
2023/08/11 07:51:07;;;;;;;3.85;1.83;;;;;;;22.95;100.00;95139.22;5055623;28;20029;-85
2023/08/11 07:53:32;;;;;;;5.55;2.05;;;;;;;23.13;100.00;95142.53;5038879;28;20071;-85
2023/08/11 07:55:58;;;;;;;2.65;1.55;;;;;;;23.16;100.00;95147.19;5038630;28;20029;-85
2023/08/11 07:58:23;;;;;;;7.85;2.10;;;;;;;23.00;100.00;95142.47;5037578;28;20066;-85
2023/08/11 08:00:50;;;;;;;4.25;1.83;;;;;;;23.49;100.00;95149.09;5056730;28;20526;-84
2023/08/11 08:03:15;;;;;;;3.75;1.80;;;;;;;23.54;100.00;95143.56;5038837;28;20041;-84
2023/08/11 08:05:41;;;;;;;3.92;1.80;;;;;;;23.70;100.00;95149.03;5056486;28;20036;-85
2023/08/11 08:08:06;;;;;;;4.35;1.95;;;;;;;23.72;100.00;95154.06;5056404;28;20509;-84
2023/08/11 08:10:31;;;;;;;3.53;2.08;;;;;;;23.83;100.00;95154.41;5042026;28;20041;-84
2023/08/11 08:12:57;;;;;;;11.18;6.20;;;;;;;23.73;100.00;95151.03;5035216;28;20041;-85
2023/08/11 08:15:28;;;;;;;16.65;7.65;;;;;;;23.77;100.00;95156.50;5034652;28;20327;-84
2023/08/11 08:17:53;;;;;;;6.80;2.25;;;;;;;23.29;100.00;95158.75;5035057;28;20026;-85
2023/08/11 08:20:18;;;;;;;5.80;1.92;;;;;;;23.61;100.00;95152.91;5036058;28;20041;-83
2023/08/11 08:22:44;;;;;;;3.28;1.73;;;;;;;23.18;100.00;95154.91;5034545;28;20040;-86
2023/08/11 08:25:09;;;;;;;6.90;1.80;;;;;;;23.42;100.00;95156.91;5034926;28;20060;-83
2023/08/11 08:27:36;;;;;;;5.57;2.25;;;;;;;23.73;100.00;95158.28;5034345;28;20036;-83
2023/08/11 08:30:02;;;;;;;5.95;1.80;;;;;;;23.58;100.00;95151.69;5034121;28;20029;-83
2023/08/11 08:32:29;;;;;;;3.58;1.70;;;;;;;23.89;100.00;95160.31;5051344;28;20037;-85
2023/08/11 08:34:54;;;;;;;4.30;1.67;;;;;;;23.63;100.00;95159.50;5055577;28;20021;-84
2023/08/11 08:37:20;;;;;;;9.40;4.32;;;;;;;23.97;100.00;95156.75;5054053;28;20024;-83
2023/08/11 08:39:46;;;;;;;9.38;2.70;;;;;;;23.91;100.00;95164.22;5054185;28;20199;-83
2023/08/11 08:42:13;;;;;;;5.85;1.95;;;;;;;24.01;100.00;95155.72;5053967;28;20462;-82
2023/08/11 08:44:39;;;;;;;4.43;1.70;;;;;;;24.10;100.00;95157.56;5054148;28;20028;-82
2023/08/11 08:47:05;;;;;;;3.40;1.50;;;;;;;24.08;100.00;95160.56;5053782;28;20461;-83
2023/08/11 08:49:31;;;;;;;5.75;1.77;;;;;;;24.14;100.00;95159.25;5054196;28;20499;-83
2023/08/11 08:51:57;;;;;;;5.88;2.10;;;;;;;24.26;100.00;95160.34;5054186;28;20029;-84
2023/08/11 08:54:23;;;;;;;5.13;1.67;;;;;;;24.29;100.00;95167.72;5053959;28;20438;-84
2023/08/11 08:56:50;;;;;;;3.53;1.70;;;;;;;24.53;100.00;95160.75;5054102;28;20354;-83
2023/08/11 08:59:16;;;;;;;4.97;1.95;;;;;;;24.63;100.00;95164.88;5053962;28;20430;-84
2023/08/11 09:01:41;;;;;;;9.77;1.88;;;;;;;24.20;100.00;95164.34;5053794;28;20044;-86
2023/08/11 09:04:07;;;;;;;6.25;2.83;;;;;;;24.45;100.00;95169.69;5054083;28;20320;-83
2023/08/11 09:06:33;;;;;;;4.32;1.88;;;;;;;24.56;100.00;95165.44;5037027;28;20059;-83
2023/08/11 09:08:59;;;;;;;11.23;2.88;;;;;;;24.71;100.00;95167.41;5053103;28;20028;-83
2023/08/11 09:11:26;;;;;;;6.57;1.75;;;;;;;24.94;100.00;95166.91;5054125;28;20024;-83
2023/08/11 09:13:51;;;;;;;4.43;1.77;;;;;;;24.88;100.00;95173.66;5053493;28;20017;-83
2023/08/11 09:16:21;;;;;;;3.83;2.25;;;;;;;25.04;100.00;95171.03;5054027;28;20032;-84
2023/08/11 09:18:46;;;;;;;5.95;2.00;;;;;;;24.65;100.00;95179.47;5053416;28;20024;-84
2023/08/11 09:21:12;;;;;;;4.95;1.42;;;;;;;25.00;100.00;95170.16;5053906;28;20086;-83
2023/08/11 09:23:37;;;;;;;5.30;1.92;;;;;;;25.13;100.00;95171.66;5054944;28;20043;-83
2023/08/11 09:26:03;;;;;;;6.25;1.80;;;;;;;25.11;100.00;95173.13;5053997;28;20043;-84
2023/08/11 09:28:28;;;;;;;3.38;1.40;;;;;;;25.00;100.00;95167.47;5052973;28;20037;-83
2023/08/11 09:30:55;;;;;;;7.60;1.80;;;;;;;25.31;100.00;95173.28;5054246;28;20061;-85
2023/08/11 09:33:25;;;;;;;4.32;1.92;;;;;;;25.27;100.00;95170.50;5055120;28;20041;-84
2023/08/11 09:35:51;;;;;;;5.35;1.80;;;;;;;25.34;100.00;95168.00;5053749;28;20041;-83
2023/08/11 09:38:16;;;;;;;12.68;2.20;;;;;;;25.24;100.00;95169.25;5054360;28;20112;-80
2023/08/11 09:40:42;;;;;;;9.30;1.85;;;;;;;24.88;100.00;95165.63;5054541;28;20155;-83
2023/08/11 09:43:07;;;;;;;4.53;1.90;;;;;;;24.73;100.00;95167.06;5054937;28;20071;-83
2023/08/11 09:45:33;;;;;;;2.90;1.70;;;;;;;25.03;100.00;95158.72;5053881;28;20358;-83
2023/08/11 09:47:58;;;;;;;6.72;1.80;;;;;;;25.33;100.00;95162.97;5036492;28;20069;-83
2023/08/11 09:50:27;;;;;;;8.93;1.73;;;;;;;25.14;100.00;95159.03;5053348;28;20045;-81
2023/08/11 09:52:52;;;;;;;5.57;2.10;;;;;;;24.50;100.00;95162.22;5053712;28;20041;-87
2023/08/11 09:55:18;;;;;;;3.75;1.80;;;;;;;25.04;100.00;95154.16;5054008;28;20116;-85
2023/08/11 09:57:44;;;;;;;5.30;1.95;;;;;;;24.99;100.00;95153.28;5053357;28;20037;-84
2023/08/11 10:00:13;;;;;;;8.02;1.80;;;;;;;24.97;100.00;95150.19;5052633;28;20049;-85
2023/08/11 10:02:43;;;;;;;6.32;2.08;;;;;;;24.79;100.00;95151.56;5053597;28;20041;-86
2023/08/11 10:05:10;;;;;;;3.63;1.90;;;;;;;24.80;100.00;95153.13;5052841;28;20131;-85
2023/08/11 10:07:39;;;;;;;7.80;1.75;;;;;;;25.10;100.00;95144.75;5053570;28;20029;-84
2023/08/11 10:10:09;;;;;;;7.38;3.80;;;;;;;25.48;100.00;95148.84;5053435;28;20040;-85
2023/08/11 10:12:36;;;;;;;5.55;2.00;;;;;;;25.57;100.00;95153.28;5054319;28;20377;-87
2023/08/11 10:15:05;;;;;;;7.70;2.17;;;;;;;25.26;100.00;95150.94;5043976;28;20040;-87
2023/08/11 10:17:30;;;;;;;4.13;1.90;;;;;;;24.95;100.00;95157.00;5037811;28;20159;-86
2023/08/11 10:19:56;;;;;;;4.90;1.90;;;;;;;24.75;100.00;95159.50;5036744;28;20428;-86
2023/08/11 10:22:21;;;;;;;5.53;2.00;;;;;;;24.87;100.00;95163.25;5038669;28;20045;-86
2023/08/11 10:24:47;;;;;;;5.07;1.83;;;;;;;24.90;100.00;95159.94;5020189;28;20037;-86
2023/08/11 10:27:13;;;;;;;3.67;1.80;;;;;;;24.94;100.00;95163.47;5036720;28;20369;-87
2023/08/11 10:29:40;;;;;;;6.63;2.08;;;;;;;24.77;100.00;95170.69;5037216;28;20069;-87
2023/08/11 10:32:08;;;;;;;6.05;2.22;;;;;;;24.89;100.00;95161.81;5037481;28;20041;-88
2023/08/11 10:34:34;;;;;;;8.63;2.03;;;;;;;24.88;100.00;95167.50;5020454;28;20124;-87
2023/08/11 10:36:59;;;;;;;5.63;1.90;;;;;;;24.96;100.00;95164.72;5020776;28;20128;-84
2023/08/11 10:39:25;;;;;;;2.63;1.67;;;;;;;25.47;100.00;95157.22;5037006;28;20044;-85
2023/08/11 10:41:51;;;;;;;3.90;1.60;;;;;;;25.59;100.00;95161.75;5037994;28;20352;-86
2023/08/11 10:44:20;;;;;;;8.10;1.80;;;;;;;25.66;100.00;95157.34;5036821;28;20037;-85
2023/08/11 10:46:47;;;;;;;9.27;2.45;;;;;;;25.80;100.00;95159.59;5020308;28;20119;-85
2023/08/11 10:49:12;;;;;;;5.75;2.00;;;;;;;25.83;100.00;95166.19;5036877;28;20399;-86
2023/08/11 10:51:39;;;;;;;5.22;2.00;;;;;;;25.68;100.00;95165.06;5036877;28;20148;-85
2023/08/11 10:54:11;;;;;;;6.25;2.15;;;;;;;25.23;100.00;95164.25;5036900;28;20038;-85
2023/08/11 10:56:39;;;;;;;5.90;2.25;;;;;;;25.15;100.00;95160.59;5036781;28;20044;-86
2023/08/11 10:59:05;;;;;;;4.45;1.80;;;;;;;25.31;100.00;95167.91;5036569;28;20430;-87
2023/08/11 11:01:42;;;;;;;5.13;1.88;;;;;;;25.44;100.00;95169.41;5036707;28;20041;-87
2023/08/11 11:04:08;;;;;;;6.25;1.95;;;;;;;25.61;100.00;95164.88;5037032;28;20030;-86
2023/08/11 11:06:39;;;;;;;4.28;2.20;;;;;;;25.65;100.00;95163.84;5036484;28;20037;-87
2023/08/11 11:09:06;;;;;;;4.57;1.83;;;;;;;26.01;100.00;95165.81;5036793;28;20112;-86
2023/08/11 11:11:32;;;;;;;5.32;1.95;;;;;;;26.05;100.00;95177.44;5043516;28;20033;-86
2023/08/11 11:13:58;;;;;;;7.22;2.15;;;;;;;25.32;100.00;95162.22;5056489;28;20041;-87
2023/08/11 11:16:23;;;;;;;6.72;2.00;;;;;;;25.78;100.00;95169.91;5056672;28;20040;-85
2023/08/11 11:18:50;;;;;;;4.72;1.67;;;;;;;25.74;100.00;95161.00;5052949;28;20037;-87